Time;durP1;ratioP1;P1;durP2;ratioP2;P2;SDS_P1;SDS_P2;PMS_P1;PMS_P2;Temp;Humidity;BMP_temperature;BMP_pressure;BME280_temperature;BME280_humidity;BME280_pressure;Samples;Min_cycle;Max_cycle;Signal;HPM_P1;HPM_P2
2023/01/21 00:01:45;;;;;;;34.00;17.95;;;-0.70;99.90;;;;;;5125239;28;20122;-83
2023/01/21 00:04:11;;;;;;;36.83;18.27;;;0.40;99.90;;;;;;5106625;28;20043;-83
2023/01/21 00:06:37;;;;;;;37.58;19.15;;;-0.80;99.90;;;;;;5091948;27;20047;-83
2023/01/21 00:09:03;;;;;;;36.65;17.92;;;0.30;99.90;;;;;;5110132;27;20054;-83
2023/01/21 00:11:29;;;;;;;36.05;17.00;;;-0.80;99.90;;;;;;5110635;27;20337;-83
2023/01/21 00:13:54;;;;;;;38.17;19.42;;;-0.90;99.90;;;;;;5093161;27;20364;-83
2023/01/21 00:16:20;;;;;;;43.38;19.80;;;-0.90;99.90;;;;;;5110297;27;20316;-83
2023/01/21 00:18:49;;;;;;;41.88;19.83;;;-0.90;99.90;;;;;;5128412;27;20043;-83
2023/01/21 00:21:15;;;;;;;41.53;19.75;;;-1.00;99.90;;;;;;5110463;27;20114;-83
2023/01/21 00:23:41;;;;;;;47.08;20.27;;;-1.00;99.90;;;;;;5092809;27;20130;-83
2023/01/21 00:26:10;;;;;;;39.42;20.60;;;-1.10;99.90;;;;;;5128541;27;20031;-83
2023/01/21 00:28:37;;;;;;;42.00;19.67;;;-1.00;99.90;;;;;;5110226;27;20401;-83
2023/01/21 00:31:05;;;;;;;36.75;19.08;;;-1.10;99.90;;;;;;5109831;27;20086;-83
2023/01/21 00:33:32;;;;;;;41.63;20.63;;;-1.10;99.90;;;;;;5128890;27;20039;-83
2023/01/21 00:36:03;;;;;;;39.97;20.70;;;-1.20;99.90;;;;;;5092559;27;20039;-83
2023/01/21 00:38:29;;;;;;;43.33;19.98;;;-1.20;99.90;;;;;;5109797;27;20130;-83
2023/01/21 00:41:03;;;;;;;37.30;18.33;;;-1.20;99.90;;;;;;5127669;27;20126;-83
2023/01/21 00:43:29;;;;;;;41.28;19.40;;;-1.20;99.90;;;;;;5127666;27;20051;-83
2023/01/21 00:45:55;;;;;;;36.42;18.67;;;-1.20;99.90;;;;;;5109901;27;20073;-83
2023/01/21 00:48:21;;;;;;;43.00;19.98;;;-1.30;99.90;;;;;;5109302;27;20043;-83
2023/01/21 00:50:46;;;;;;;42.67;18.80;;;-0.40;99.90;;;;;;5128456;27;20050;-83
2023/01/21 00:53:12;;;;;;;41.40;19.60;;;-1.40;99.90;;;;;;5127963;27;20060;-83
2023/01/21 00:55:38;;;;;;;39.65;19.05;;;-0.10;99.90;;;;;;5110189;27;20095;-83
2023/01/21 00:58:03;;;;;;;45.08;21.15;;;-1.40;99.90;;;;;;5109396;27;20414;-83
2023/01/21 01:00:29;;;;;;;41.67;20.13;;;-1.50;99.90;;;;;;5109434;27;20046;-82
2023/01/21 01:02:55;;;;;;;41.25;19.75;;;-1.50;99.90;;;;;;5109804;27;20393;-83
2023/01/21 01:05:21;;;;;;;42.00;20.88;;;-1.50;99.90;;;;;;5109192;27;20032;-83
2023/01/21 01:07:49;;;;;;;41.88;20.30;;;-1.50;99.90;;;;;;5109154;27;20047;-83
2023/01/21 01:10:15;;;;;;;41.60;20.08;;;-1.50;99.90;;;;;;5109535;27;20070;-83
2023/01/21 01:12:41;;;;;;;41.50;20.35;;;-1.50;99.90;;;;;;5127914;27;20089;-83
2023/01/21 01:15:07;;;;;;;43.30;21.02;;;-1.50;99.90;;;;;;5127591;27;20727;-83
2023/01/21 01:17:33;;;;;;;42.88;21.42;;;-1.50;99.90;;;;;;5126934;27;20115;-83
2023/01/21 01:19:59;;;;;;;40.70;19.50;;;-1.50;99.90;;;;;;5109101;27;21927;-83
2023/01/21 01:22:25;;;;;;;40.67;20.27;;;-1.60;99.90;;;;;;5108546;27;20039;-83
2023/01/21 01:24:50;;;;;;;39.70;18.83;;;-1.50;99.90;;;;;;5127920;27;20038;-83
2023/01/21 01:27:16;;;;;;;44.78;20.60;;;-1.60;99.90;;;;;;5109128;27;20123;-83
2023/01/21 01:29:42;;;;;;;42.83;19.92;;;-1.10;99.90;;;;;;5127583;27;20054;-83
2023/01/21 01:32:08;;;;;;;43.95;19.90;;;-0.50;99.90;;;;;;5126735;27;20096;-83
2023/01/21 01:34:34;;;;;;;41.42;20.08;;;-1.60;99.90;;;;;;5091885;27;20054;-83
2023/01/21 01:36:59;;;;;;;38.10;19.95;;;-1.60;99.90;;;;;;5108499;27;20043;-83
2023/01/21 01:39:25;;;;;;;37.35;19.38;;;-1.70;99.90;;;;;;5108246;27;20043;-83
2023/01/21 01:41:52;;;;;;;41.90;19.42;;;-1.70;99.90;;;;;;5127038;27;20059;-86
2023/01/21 01:44:59;;;;;;;41.20;19.60;;;-1.70;99.90;;;;;;5108459;27;20095;-83
2023/01/21 01:47:32;;;;;;;40.70;19.52;;;-1.70;99.90;;;;;;5127935;27;20660;-83
2023/01/21 01:50:00;;;;;;;38.13;20.17;;;-1.70;99.90;;;;;;5113170;27;20074;-83
2023/01/21 01:52:27;;;;;;;41.60;21.60;;;-1.80;99.90;;;;;;5129603;27;20473;-83
2023/01/21 01:54:56;;;;;;;36.50;17.77;;;-1.00;99.90;;;;;;5092760;27;20035;-83
2023/01/21 01:57:30;;;;;;;43.72;21.10;;;-1.80;99.90;;;;;;5109080;27;20431;-83
2023/01/21 01:59:57;;;;;;;37.60;18.67;;;-1.80;99.90;;;;;;5108504;27;20047;-83
2023/01/21 02:02:26;;;;;;;41.92;19.48;;;-1.80;99.90;;;;;;5091177;27;20074;-83
2023/01/21 02:04:59;;;;;;;35.42;19.17;;;-1.90;99.90;;;;;;5108290;27;20428;-83
2023/01/21 02:07:29;;;;;;;38.78;19.13;;;-1.90;99.90;;;;;;5108798;27;20083;-83
2023/01/21 02:09:55;;;;;;;48.65;19.90;;;-1.90;99.90;;;;;;5126603;27;20083;-83
2023/01/21 02:12:21;;;;;;;48.15;20.70;;;-1.90;99.90;;;;;;5126835;27;20462;-83
2023/01/21 02:14:48;;;;;;;42.63;20.70;;;-0.70;99.90;;;;;;5108373;27;20035;-83
2023/01/21 02:17:54;;;;;;;46.08;23.05;;;-1.90;99.90;;;;;;5126943;27;20083;-83
2023/01/21 02:20:57;;;;;;;53.65;23.80;;;-2.00;99.90;;;;;;5104409;27;20047;-83
2023/01/21 02:23:32;;;;;;;49.38;22.50;;;-1.90;99.90;;;;;;5108123;27;20313;-83
2023/01/21 02:26:16;;;;;;;59.38;25.17;;;-1.90;99.90;;;;;;5108593;27;20043;-83
2023/01/21 02:29:16;;;;;;;50.35;22.25;;;-2.00;99.90;;;;;;5107127;27;20070;-83
2023/01/21 02:32:03;;;;;;;53.65;23.98;;;-1.90;99.90;;;;;;5107758;27;20176;-84
2023/01/21 02:35:10;;;;;;;60.78;25.15;;;-1.90;99.90;;;;;;5107799;27;20574;-83
2023/01/21 02:37:56;;;;;;;55.20;25.20;;;-1.90;99.90;;;;;;5080595;27;20059;-83
2023/01/21 02:40:36;;;;;;;56.60;24.05;;;-2.00;99.90;;;;;;5126104;27;20402;-83
2023/01/21 02:43:17;;;;;;;51.88;23.65;;;-2.00;99.90;;;;;;5125971;27;20126;-83
2023/01/21 02:45:58;;;;;;;47.97;21.75;;;-2.00;99.90;;;;;;5108935;27;20077;-84
2023/01/21 02:48:42;;;;;;;53.22;23.92;;;-2.00;99.90;;;;;;5126310;27;20346;-84
2023/01/21 02:51:11;;;;;;;56.10;24.33;;;-2.00;99.90;;;;;;5092225;27;20119;-83
2023/01/21 02:53:37;;;;;;;59.50;23.58;;;-2.00;99.90;;;;;;5090666;27;20225;-84
2023/01/21 02:56:12;;;;;;;50.20;23.13;;;-2.00;99.90;;;;;;5107765;27;20183;-83
2023/01/21 02:58:50;;;;;;;45.45;21.73;;;-2.00;99.90;;;;;;5107541;27;20043;-83
2023/01/21 03:01:48;;;;;;;51.22;21.70;;;-2.00;99.90;;;;;;5107506;27;20082;-83
2023/01/21 03:04:51;;;;;;;45.63;20.77;;;-2.00;99.90;;;;;;5126256;27;20035;-83
2023/01/21 03:07:23;;;;;;;45.42;20.40;;;-2.00;99.90;;;;;;5126233;27;20066;-83
2023/01/21 03:09:49;;;;;;;44.45;20.80;;;-2.10;99.90;;;;;;5103246;28;20546;-83
2023/01/21 03:12:39;;;;;;;49.47;22.52;;;-2.10;99.90;;;;;;5104522;28;20067;-83
2023/01/21 03:18:30;;;;;;;43.13;21.67;;;-2.00;99.90;;;;;;5103305;28;20083;-83
2023/01/21 03:21:05;;;;;;;44.80;20.88;;;-2.00;99.90;;;;;;5087028;28;20449;-83
2023/01/21 03:23:41;;;;;;;40.88;19.95;;;-2.00;99.90;;;;;;5104354;28;20105;-83
2023/01/21 03:26:12;;;;;;;44.95;20.60;;;-2.00;99.90;;;;;;5105372;28;20104;-83
2023/01/21 03:28:43;;;;;;;46.85;22.05;;;-2.00;99.90;;;;;;5105484;28;20471;-83
2023/01/21 03:31:13;;;;;;;44.53;22.00;;;-2.00;99.90;;;;;;5103879;28;20418;-83
2023/01/21 03:33:44;;;;;;;44.53;21.20;;;-2.00;99.90;;;;;;5105383;28;20039;-83
2023/01/21 03:36:53;;;;;;;46.58;23.38;;;-2.00;99.90;;;;;;5104024;28;20075;-83
2023/01/21 03:39:45;;;;;;;44.60;22.30;;;-2.00;99.90;;;;;;5105792;28;20530;-83
2023/01/21 03:42:12;;;;;;;48.13;22.88;;;-2.00;99.90;;;;;;5109464;28;20040;-83
2023/01/21 03:44:39;;;;;;;45.75;22.38;;;-1.90;99.90;;;;;;5107757;28;20130;-83
2023/01/21 03:47:30;;;;;;;52.78;23.00;;;-1.80;99.90;;;;;;5108315;28;20148;-83
2023/01/21 03:50:12;;;;;;;48.30;23.05;;;-1.70;99.90;;;;;;5109317;28;20069;-83
2023/01/21 03:52:42;;;;;;;50.85;22.42;;;-1.60;99.90;;;;;;5108702;28;20062;-83
2023/01/21 03:55:12;;;;;;;47.22;23.95;;;-1.50;99.90;;;;;;5108311;28;20043;-83
2023/01/21 03:57:38;;;;;;;48.95;23.35;;;-1.50;99.90;;;;;;5107541;28;20058;-83
2023/01/21 04:00:05;;;;;;;53.95;23.02;;;-1.40;99.90;;;;;;5107769;28;20039;-83
2023/01/21 04:02:31;;;;;;;52.67;22.88;;;-1.30;99.90;;;;;;5106977;28;20054;-82
2023/01/21 04:04:57;;;;;;;50.85;23.52;;;-1.30;99.90;;;;;;5090655;28;20047;-83
2023/01/21 04:07:23;;;;;;;50.80;23.67;;;-1.20;99.90;;;;;;5107373;28;20032;-83
2023/01/21 04:09:49;;;;;;;52.42;22.77;;;-1.20;99.90;;;;;;5106939;28;20541;-83
2023/01/21 04:12:15;;;;;;;52.20;22.10;;;-1.10;99.90;;;;;;5107267;28;20047;-83
2023/01/21 04:14:41;;;;;;;50.88;23.48;;;-1.10;99.90;;;;;;5108352;28;20499;-83
2023/01/21 04:17:07;;;;;;;52.65;24.23;;;-1.00;99.90;;;;;;5107151;28;20066;-83
2023/01/21 04:19:33;;;;;;;52.08;25.27;;;-1.00;99.90;;;;;;5108122;28;20113;-83
2023/01/21 04:21:58;;;;;;;50.95;22.33;;;-1.00;99.90;;;;;;5106936;28;20040;-82
2023/01/21 04:24:24;;;;;;;53.17;24.33;;;-0.70;99.90;;;;;;5089737;28;20478;-82
2023/01/21 04:26:50;;;;;;;46.22;22.85;;;-0.90;99.90;;;;;;5108762;28;20046;-82
2023/01/21 04:29:16;;;;;;;47.90;22.88;;;-0.80;99.90;;;;;;5089967;28;20076;-82
2023/01/21 04:31:42;;;;;;;49.75;23.67;;;-0.80;99.90;;;;;;5107121;28;20035;-82
2023/01/21 04:34:07;;;;;;;48.88;22.85;;;-0.80;99.90;;;;;;5106734;28;20673;-82
2023/01/21 04:36:33;;;;;;;48.97;23.30;;;-0.40;99.90;;;;;;5106429;28;20118;-83
2023/01/21 04:38:59;;;;;;;51.97;24.25;;;-0.70;99.90;;;;;;5108218;28;20435;-82
2023/01/21 04:41:24;;;;;;;44.30;22.50;;;-0.70;99.90;;;;;;5106876;28;20039;-83
2023/01/21 04:43:50;;;;;;;48.30;22.58;;;-0.70;99.90;;;;;;5107456;28;20394;-82
2023/01/21 04:46:16;;;;;;;44.13;21.98;;;0.50;99.90;;;;;;5108210;28;20126;-82
2023/01/21 04:48:41;;;;;;;48.15;21.73;;;0.50;99.90;;;;;;5106804;28;20429;-82
2023/01/21 04:51:07;;;;;;;43.55;21.95;;;-0.60;99.90;;;;;;5107329;28;20043;-82
2023/01/21 04:53:33;;;;;;;45.90;21.88;;;-0.70;99.90;;;;;;5106567;28;20050;-82
2023/01/21 04:55:59;;;;;;;47.83;24.25;;;0.70;99.90;;;;;;5106539;28;20547;-82
2023/01/21 04:58:25;;;;;;;46.47;22.08;;;-0.60;99.90;;;;;;5107767;28;20493;-82
2023/01/21 05:00:53;;;;;;;47.10;22.38;;;-0.60;99.90;;;;;;5106118;28;20163;-82
2023/01/21 05:03:19;;;;;;;43.55;21.38;;;-0.60;99.90;;;;;;5089739;28;20058;-82
2023/01/21 05:05:44;;;;;;;50.33;20.95;;;-0.60;99.90;;;;;;5107301;28;20047;-83
2023/01/21 05:08:10;;;;;;;46.90;21.63;;;-0.30;99.90;;;;;;5113332;27;20487;-82
2023/01/21 05:10:36;;;;;;;46.88;21.58;;;-1.80;99.90;;;;;;5115337;27;20053;-82
2023/01/21 05:13:02;;;;;;;43.72;22.52;;;-0.60;99.90;;;;;;5130073;27;20476;-83
2023/01/21 05:15:28;;;;;;;47.05;21.85;;;-0.60;99.90;;;;;;5126552;27;20047;-82
2023/01/21 05:17:53;;;;;;;44.10;21.40;;;-0.60;99.90;;;;;;5110862;27;20379;-80
2023/01/21 05:20:19;;;;;;;44.72;22.42;;;-0.70;99.90;;;;;;5095246;27;20068;-81
2023/01/21 05:22:46;;;;;;;42.22;20.80;;;-0.70;99.90;;;;;;5111057;27;20047;-82
2023/01/21 05:25:13;;;;;;;43.40;20.95;;;-0.20;99.90;;;;;;5111915;27;20104;-82
2023/01/21 05:27:39;;;;;;;44.78;21.48;;;-0.80;99.90;;;;;;5093174;27;20078;-81
2023/01/21 05:30:05;;;;;;;41.30;21.67;;;-0.90;99.90;;;;;;5109100;27;20482;-82
2023/01/21 05:32:31;;;;;;;43.47;22.42;;;-1.00;99.90;;;;;;5127089;27;20046;-82
2023/01/21 05:34:57;;;;;;;42.80;21.10;;;-1.00;99.90;;;;;;5127370;27;20110;-81
2023/01/21 05:37:23;;;;;;;44.50;21.40;;;-1.00;99.90;;;;;;5108851;27;20143;-81
2023/01/21 05:39:49;;;;;;;43.83;21.65;;;-1.00;99.90;;;;;;5127067;27;20087;-81
2023/01/21 05:42:15;;;;;;;44.20;20.77;;;-1.00;99.90;;;;;;5127367;27;20054;-83
2023/01/21 05:44:40;;;;;;;42.72;20.58;;;-1.10;99.90;;;;;;5127883;27;20055;-82
2023/01/21 05:47:07;;;;;;;38.28;18.02;;;-1.10;99.90;;;;;;5109497;27;20109;-82
2023/01/21 05:49:34;;;;;;;42.13;21.08;;;-1.20;99.90;;;;;;5108407;27;20143;-81
2023/01/21 05:51:59;;;;;;;45.83;22.73;;;-1.00;99.90;;;;;;5127225;27;20082;-81
2023/01/21 05:54:25;;;;;;;43.47;21.02;;;-1.30;99.90;;;;;;5108333;27;20058;-82
2023/01/21 05:56:51;;;;;;;48.40;21.95;;;-1.30;99.90;;;;;;5091416;27;20062;-83
2023/01/21 05:59:16;;;;;;;51.10;22.92;;;-1.00;99.90;;;;;;5108461;27;20402;-82
2023/01/21 06:01:42;;;;;;;41.72;21.38;;;-1.30;99.90;;;;;;5127110;27;20118;-84
2023/01/21 06:04:08;;;;;;;43.53;21.75;;;-1.40;99.90;;;;;;5127075;27;20474;-82
2023/01/21 06:06:33;;;;;;;47.58;22.25;;;-1.40;99.90;;;;;;5108298;27;20066;-82
2023/01/21 06:08:59;;;;;;;42.75;21.42;;;-1.50;99.90;;;;;;5091289;27;20043;-82
2023/01/21 06:11:25;;;;;;;41.45;20.92;;;-1.50;99.90;;;;;;5091153;27;20061;-82
2023/01/21 06:13:50;;;;;;;44.53;22.13;;;-1.60;99.90;;;;;;5108206;27;20054;-83
2023/01/21 06:16:16;;;;;;;47.42;22.55;;;-1.60;99.90;;;;;;5108430;27;20398;-82
2023/01/21 06:18:41;;;;;;;45.63;21.70;;;-1.70;99.90;;;;;;5091440;27;20031;-83
2023/01/21 06:21:07;;;;;;;43.92;21.73;;;-1.70;99.90;;;;;;5108303;27;20039;-82
2023/01/21 06:23:33;;;;;;;51.38;23.42;;;-0.50;99.90;;;;;;5126675;27;20039;-83
2023/01/21 06:26:02;;;;;;;48.00;22.10;;;-1.80;99.90;;;;;;5091059;27;20130;-83
2023/01/21 06:28:30;;;;;;;45.30;21.13;;;-1.80;99.90;;;;;;5108306;27;20046;-83
2023/01/21 06:30:56;;;;;;;47.38;22.00;;;-1.80;99.90;;;;;;5126270;27;20047;-83
2023/01/21 06:33:22;;;;;;;45.67;21.60;;;-1.80;99.90;;;;;;5091118;27;20047;-83
2023/01/21 06:35:48;;;;;;;45.33;21.85;;;-1.80;99.90;;;;;;5073803;27;20138;-83
2023/01/21 06:38:13;;;;;;;45.80;22.70;;;-1.90;99.90;;;;;;5074173;27;20047;-83
2023/01/21 06:40:39;;;;;;;46.10;22.50;;;-1.90;99.90;;;;;;5107538;27;20146;-83
2023/01/21 06:43:05;;;;;;;44.40;21.95;;;-2.00;99.90;;;;;;5108380;27;20047;-83
2023/01/21 06:45:30;;;;;;;49.13;21.63;;;-2.00;99.90;;;;;;5090565;27;20043;-84
2023/01/21 06:47:56;;;;;;;45.60;22.77;;;-2.00;99.90;;;;;;5107694;27;20126;-83
2023/01/21 06:50:22;;;;;;;48.10;20.50;;;-2.00;99.90;;;;;;5107982;27;20061;-83
2023/01/21 06:52:48;;;;;;;46.65;20.60;;;-2.00;99.90;;;;;;5126336;27;20574;-83
2023/01/21 06:55:15;;;;;;;45.75;22.33;;;-2.00;99.90;;;;;;5126441;27;20047;-83
2023/01/21 06:57:42;;;;;;;43.13;20.80;;;-2.00;99.90;;;;;;5125790;27;20051;-83
2023/01/21 07:00:13;;;;;;;44.55;20.15;;;-2.00;99.90;;;;;;5126376;27;20378;-83
2023/01/21 07:02:39;;;;;;;48.58;21.88;;;-2.00;99.90;;;;;;5125836;27;20045;-83
2023/01/21 07:05:05;;;;;;;42.05;18.95;;;-2.10;99.90;;;;;;5126370;27;20114;-83
2023/01/21 07:07:31;;;;;;;43.67;20.90;;;-2.10;99.90;;;;;;5090962;28;20167;-83
2023/01/21 07:09:57;;;;;;;46.55;19.70;;;-2.10;99.90;;;;;;5125393;27;20533;-83
2023/01/21 07:12:23;;;;;;;45.58;20.80;;;-2.20;99.90;;;;;;5108082;28;20043;-83
2023/01/21 07:14:48;;;;;;;45.90;20.05;;;-2.20;99.90;;;;;;5106847;28;20165;-84
2023/01/21 07:17:15;;;;;;;45.15;21.45;;;-2.20;99.90;;;;;;5126254;28;20054;-84
2023/01/21 07:19:41;;;;;;;48.95;22.70;;;-1.00;99.90;;;;;;5091029;28;20085;-83
2023/01/21 07:22:07;;;;;;;45.00;21.50;;;-2.30;99.90;;;;;;5106910;28;20055;-83
2023/01/21 07:24:33;;;;;;;45.97;21.65;;;-2.30;99.90;;;;;;5090390;28;20129;-84
2023/01/21 07:26:59;;;;;;;46.47;21.80;;;-2.30;99.90;;;;;;5107558;28;20144;-83
2023/01/21 07:29:26;;;;;;;50.92;22.00;;;-1.20;99.90;;;;;;5107770;28;20486;-83
2023/01/21 07:31:52;;;;;;;45.08;22.00;;;-2.20;99.90;;;;;;5125653;28;20156;-84
2023/01/21 07:34:19;;;;;;;43.90;21.25;;;-2.20;99.90;;;;;;5107532;28;20043;-82
2023/01/21 07:36:45;;;;;;;45.00;22.05;;;-2.20;99.90;;;;;;5107365;28;20051;-82
2023/01/21 07:39:10;;;;;;;47.33;20.95;;;-1.70;99.90;;;;;;5107274;28;20490;-82
2023/01/21 07:41:36;;;;;;;43.67;22.13;;;-2.30;99.90;;;;;;5125807;28;20050;-84
2023/01/21 07:44:02;;;;;;;50.17;23.42;;;-1.70;99.90;;;;;;5107237;28;20035;-84
2023/01/21 07:46:27;;;;;;;48.42;21.92;;;-2.40;99.90;;;;;;5125775;28;20659;-83
2023/01/21 07:48:53;;;;;;;43.42;21.00;;;-2.40;99.90;;;;;;5107147;28;20151;-83
2023/01/21 07:51:19;;;;;;;47.85;21.05;;;-2.40;99.90;;;;;;5107100;28;20039;-84
2023/01/21 07:53:45;;;;;;;47.72;21.33;;;-2.40;99.90;;;;;;5125707;28;20031;-84
2023/01/21 07:56:11;;;;;;;52.65;22.60;;;-1.60;99.90;;;;;;5125534;28;20035;-83
2023/01/21 07:58:37;;;;;;;49.88;22.73;;;-2.30;99.90;;;;;;5107697;28;20053;-84
2023/01/21 08:01:06;;;;;;;51.05;22.23;;;-2.30;99.90;;;;;;5106813;28;20121;-84
2023/01/21 08:03:32;;;;;;;45.53;22.58;;;-1.10;99.90;;;;;;5090840;28;20035;-84
2023/01/21 08:06:01;;;;;;;53.03;24.48;;;-2.30;99.90;;;;;;5107613;28;20414;-84
2023/01/21 08:08:27;;;;;;;54.78;24.15;;;-2.30;99.90;;;;;;5090821;27;20062;-85
2023/01/21 08:10:54;;;;;;;58.40;24.73;;;-2.30;99.90;;;;;;5125438;28;20509;-86
2023/01/21 08:13:20;;;;;;;51.20;22.33;;;-2.20;99.90;;;;;;5107621;28;20109;-84
2023/01/21 08:15:54;;;;;;;66.30;31.17;;;-2.20;99.90;;;;;;5107736;28;20074;-84
2023/01/21 08:18:21;;;;;;;59.95;26.55;;;-2.20;99.90;;;;;;5107056;28;20051;-86
2023/01/21 08:20:47;;;;;;;58.67;26.10;;;-2.20;99.90;;;;;;5126197;28;20114;-85
2023/01/21 08:23:13;;;;;;;66.63;27.10;;;-2.20;99.90;;;;;;5111113;28;20043;-85
2023/01/21 08:25:40;;;;;;;57.05;28.17;;;-2.20;99.90;;;;;;5135094;27;20040;-85
2023/01/21 08:28:06;;;;;;;59.85;28.52;;;-2.20;99.90;;;;;;5140339;27;20398;-86
2023/01/21 08:30:32;;;;;;;58.15;27.60;;;-2.20;99.90;;;;;;5122526;27;20385;-85
2023/01/21 08:32:58;;;;;;;53.85;25.65;;;-2.20;99.90;;;;;;5121730;27;20046;-84
2023/01/21 08:35:26;;;;;;;56.78;26.92;;;-2.00;99.90;;;;;;5115623;27;20039;-85
2023/01/21 08:37:56;;;;;;;58.03;25.67;;;-2.10;99.90;;;;;;5129820;27;20359;-91
2023/01/21 08:40:25;;;;;;;53.22;24.63;;;-2.10;99.90;;;;;;5076508;27;20039;-89
2023/01/21 08:42:51;;;;;;;58.70;26.55;;;-1.00;99.90;;;;;;5093343;27;20121;-84
2023/01/21 08:45:17;;;;;;;59.60;26.23;;;-2.00;99.90;;;;;;5110121;27;20045;-85
2023/01/21 08:47:43;;;;;;;53.10;26.33;;;-2.80;99.90;;;;;;5110575;27;20048;-84
2023/01/21 08:50:09;;;;;;;52.80;25.58;;;-1.90;99.90;;;;;;5109600;27;20039;-84
2023/01/21 08:52:35;;;;;;;59.15;25.40;;;-1.90;99.90;;;;;;5128177;27;20208;-84
2023/01/21 08:55:00;;;;;;;53.53;24.15;;;-1.80;99.90;;;;;;5092870;27;20309;-84
2023/01/21 08:57:26;;;;;;;55.85;24.70;;;-1.80;99.90;;;;;;5127982;27;20039;-83
2023/01/21 08:59:52;;;;;;;56.92;25.08;;;-1.70;99.90;;;;;;5128677;27;20043;-85
2023/01/21 09:02:18;;;;;;;55.92;25.73;;;-1.70;99.90;;;;;;5109343;27;20039;-85
2023/01/21 09:04:44;;;;;;;54.92;25.23;;;-1.60;99.90;;;;;;5093517;27;20510;-83
2023/01/21 09:07:10;;;;;;;60.17;24.83;;;-1.50;99.90;;;;;;5092372;27;20498;-85
2023/01/21 09:09:36;;;;;;;57.08;24.55;;;-1.40;99.90;;;;;;5109028;27;20047;-83
2023/01/21 09:12:04;;;;;;;59.38;26.70;;;-1.40;99.90;;;;;;5109591;27;20050;-83
2023/01/21 09:14:30;;;;;;;47.38;24.17;;;-1.40;99.90;;;;;;5109166;27;20100;-84
2023/01/21 09:16:56;;;;;;;51.78;24.88;;;-1.40;99.90;;;;;;5092881;27;20043;-81
2023/01/21 09:19:22;;;;;;;57.97;25.13;;;-1.40;99.90;;;;;;5092281;27;20125;-82
2023/01/21 09:21:48;;;;;;;51.38;25.95;;;-1.40;99.90;;;;;;5092704;27;20494;-82
2023/01/21 09:24:14;;;;;;;52.50;24.75;;;-1.40;99.90;;;;;;5127091;27;20541;-82
2023/01/21 09:26:43;;;;;;;54.13;24.77;;;-0.40;99.90;;;;;;5108602;27;20051;-81
2023/01/21 09:29:09;;;;;;;50.97;25.60;;;-1.10;99.90;;;;;;5127815;27;20035;-81
2023/01/21 09:31:35;;;;;;;55.17;25.65;;;-1.30;99.90;;;;;;5127281;27;20054;-80
2023/01/21 09:34:02;;;;;;;53.35;24.65;;;-0.60;99.90;;;;;;5092200;27;20043;-81
2023/01/21 09:36:30;;;;;;;50.08;23.48;;;-1.30;99.90;;;;;;5108809;27;20053;-81
2023/01/21 09:38:57;;;;;;;50.10;24.65;;;-1.30;99.90;;;;;;5127618;27;20434;-81
2023/01/21 09:41:45;;;;;;;49.10;23.70;;;-1.30;99.90;;;;;;5108319;27;20514;-81
2023/01/21 09:44:44;;;;;;;51.42;24.88;;;-1.20;99.90;;;;;;5126735;27;20051;-81
2023/01/21 09:47:19;;;;;;;55.42;25.17;;;-1.20;99.90;;;;;;5065412;27;20591;-81
2023/01/21 09:50:02;;;;;;;61.00;26.13;;;-1.20;99.90;;;;;;5108342;27;20074;-81
2023/01/21 09:52:40;;;;;;;;;;;-0.70;99.90;;;;;;5108892;27;20046;-81
2023/01/21 09:55:24;;;;;;;52.03;24.75;;;-0.80;99.90;;;;;;5108402;27;20061;-80
2023/01/21 09:58:17;;;;;;;59.40;26.42;;;-0.50;99.90;;;;;;5108724;27;20039;-81
2023/01/21 10:00:56;;;;;;;48.58;24.45;;;-0.20;99.90;;;;;;5127173;27;20043;-80
2023/01/21 10:03:39;;;;;;;50.38;24.02;;;0.10;99.90;;;;;;5127557;27;20038;-80
2023/01/21 10:06:20;;;;;;;60.58;23.83;;;0.30;99.90;;;;;;5126489;27;20508;-80
2023/01/21 10:09:01;;;;;;;48.95;22.77;;;0.50;99.90;;;;;;5126797;27;20213;-79
2023/01/21 10:11:47;;;;;;;72.85;30.77;;;0.70;99.90;;;;;;5108336;27;20043;-80
2023/01/21 10:14:41;;;;;;;52.92;23.70;;;0.90;99.90;;;;;;5090240;27;20048;-80
2023/01/21 10:17:40;;;;;;;46.78;21.92;;;1.10;99.90;;;;;;5126602;27;20130;-80
2023/01/21 10:20:15;;;;;;;49.97;20.35;;;1.30;99.90;;;;;;5126064;27;20483;-81
2023/01/21 10:23:04;;;;;;;44.67;21.55;;;1.50;99.90;;;;;;5107419;27;20525;-80
2023/01/21 10:25:32;;;;;;;41.83;20.90;;;1.70;99.90;;;;;;5126113;27;20092;-80
2023/01/21 10:28:03;;;;;;;38.20;20.52;;;1.90;99.90;;;;;;5090599;27;20032;-81
2023/01/21 10:30:37;;;;;;;45.00;21.17;;;1.90;99.90;;;;;;5090404;27;20047;-80
2023/01/21 10:33:05;;;;;;;39.13;19.30;;;2.10;99.90;;;;;;5126002;27;20047;-80
2023/01/21 10:36:12;;;;;;;34.10;19.00;;;3.50;99.90;;;;;;5125601;27;20031;-81
2023/01/21 10:39:00;;;;;;;33.65;16.85;;;2.30;99.90;;;;;;5123468;27;20062;-81
2023/01/21 10:41:31;;;;;;;35.78;17.33;;;2.50;99.90;;;;;;5107167;27;20483;-82
2023/01/21 10:44:08;;;;;;;30.17;16.67;;;2.60;99.90;;;;;;5107484;27;20054;-85
2023/01/21 10:46:33;;;;;;;29.05;15.93;;;2.80;99.90;;;;;;5091168;27;20047;-82
2023/01/21 10:49:27;;;;;;;26.58;15.13;;;3.00;99.90;;;;;;5106662;27;20402;-82
2023/01/21 10:51:57;;;;;;;;;;;3.10;99.90;;;;;;5108173;27;20047;-84
2023/01/21 10:54:53;;;;;;;23.92;13.80;;;3.20;99.90;;;;;;5126098;27;19972;-83
2023/01/21 10:57:56;;;;;;;25.42;14.07;;;3.30;99.90;;;;;;5090399;27;20053;-85
2023/01/21 11:00:30;;;;;;;24.17;14.27;;;3.40;99.90;;;;;;5107672;27;20047;-83
2023/01/21 11:03:03;;;;;;;22.55;13.77;;;3.50;99.90;;;;;;5107321;28;20047;-85
2023/01/21 11:05:31;;;;;;;27.23;14.07;;;3.60;99.90;;;;;;5106861;27;20039;-84
2023/01/21 11:07:57;;;;;;;23.55;13.05;;;3.70;99.90;;;;;;5089923;27;20506;-86
2023/01/21 11:10:25;;;;;;;21.70;12.15;;;3.80;99.90;;;;;;5107181;28;20075;-85
2023/01/21 11:12:54;;;;;;;21.92;12.73;;;3.90;99.90;;;;;;5090565;28;20039;-86
2023/01/21 11:15:20;;;;;;;20.65;10.48;;;3.90;99.90;;;;;;5107441;28;20051;-84
2023/01/21 11:17:48;;;;;;;18.25;11.57;;;5.30;99.90;;;;;;5107695;28;20055;-84
2023/01/21 11:20:20;;;;;;;20.88;11.40;;;4.10;99.90;;;;;;5125452;28;20501;-83
2023/01/21 11:22:46;;;;;;;20.98;11.18;;;4.10;99.90;;;;;;5106744;28;20205;-83
2023/01/21 11:25:26;;;;;;;20.02;11.05;;;4.10;99.90;;;;;;5107006;28;20039;-82
2023/01/21 11:27:51;;;;;;;19.63;11.63;;;4.20;99.90;;;;;;5107046;28;20549;-83
2023/01/21 11:30:31;;;;;;;20.20;11.35;;;4.20;99.90;;;;;;5090371;28;20118;-83
2023/01/21 11:33:20;;;;;;;18.55;11.23;;;4.30;99.90;;;;;;5106928;28;20054;-83
2023/01/21 11:35:46;;;;;;;17.02;10.52;;;4.30;99.90;;;;;;5125105;27;20035;-83
2023/01/21 11:38:30;;;;;;;16.60;10.98;;;4.40;99.90;;;;;;5107209;28;20045;-84
2023/01/21 11:41:11;;;;;;;18.13;10.20;;;4.50;99.90;;;;;;5090144;28;20046;-84
2023/01/21 11:43:45;;;;;;;15.38;9.05;;;4.50;99.90;;;;;;5125756;28;20486;-84
2023/01/21 11:46:22;;;;;;;15.63;9.85;;;4.60;99.90;;;;;;5108532;28;20628;-84
2023/01/21 11:48:47;;;;;;;16.35;9.93;;;4.90;99.90;;;;;;5110607;28;20047;-85
2023/01/21 11:51:13;;;;;;;16.02;9.63;;;4.60;99.90;;;;;;5113268;28;20461;-84
2023/01/21 11:53:40;;;;;;;17.15;10.15;;;4.70;99.90;;;;;;5093731;28;20043;-84
2023/01/21 11:56:06;;;;;;;10.25;8.20;;;4.80;99.90;;;;;;5075565;28;20035;-84
2023/01/21 11:58:35;;;;;;;14.52;9.13;;;4.70;99.90;;;;;;5090108;28;20035;-85
2023/01/21 12:01:09;;;;;;;14.88;9.25;;;4.80;99.90;;;;;;5108989;27;20039;-84
2023/01/21 12:03:53;;;;;;;13.48;8.85;;;4.80;99.90;;;;;;5111761;27;20046;-83
2023/01/21 12:06:25;;;;;;;11.15;7.78;;;4.90;99.90;;;;;;5110478;27;20104;-82
2023/01/21 12:08:55;;;;;;;14.93;9.27;;;5.00;99.90;;;;;;5093831;27;20051;-82
2023/01/21 12:11:26;;;;;;;10.45;6.72;;;5.00;99.90;;;;;;5110398;27;20059;-85
2023/01/21 12:14:23;;;;;;;10.10;6.03;;;5.10;99.90;;;;;;5093313;27;20043;-82
2023/01/21 12:17:01;;;;;;;8.00;6.07;;;5.10;99.90;;;;;;5089957;27;20100;-83
2023/01/21 12:19:46;;;;;;;9.95;5.25;;;5.20;99.90;;;;;;5128527;27;20068;-85
2023/01/21 12:22:24;;;;;;;9.38;5.07;;;5.70;99.90;;;;;;5129147;27;20474;-83
2023/01/21 12:25:14;;;;;;;8.48;4.55;;;5.20;99.90;;;;;;5110534;27;20050;-83
2023/01/21 12:28:02;;;;;;;8.73;5.57;;;5.20;99.90;;;;;;5093033;27;20134;-83
2023/01/21 12:30:50;;;;;;;6.78;3.95;;;5.30;99.90;;;;;;5093510;27;20042;-84
2023/01/21 12:33:31;;;;;;;7.68;4.80;;;5.30;99.90;;;;;;5110285;27;20050;-84
2023/01/21 12:36:08;;;;;;;7.30;4.30;;;5.30;99.90;;;;;;5092464;27;20129;-84
2023/01/21 12:38:41;;;;;;;6.35;3.70;;;5.30;99.90;;;;;;5110761;27;20058;-83
2023/01/21 12:41:19;;;;;;;7.47;4.80;;;5.70;99.90;;;;;;5110148;27;20467;-84
2023/01/21 12:43:49;;;;;;;8.02;4.63;;;5.40;99.90;;;;;;5128656;27;20142;-84
2023/01/21 12:46:39;;;;;;;6.78;4.00;;;5.40;99.90;;;;;;5110038;27;20154;-83
2023/01/21 12:49:53;;;;;;;6.80;4.15;;;5.60;99.90;;;;;;5109520;27;20050;-82
2023/01/21 12:52:25;;;;;;;7.00;4.03;;;5.40;99.90;;;;;;5105801;27;20051;-82
2023/01/21 12:55:20;;;;;;;6.23;3.90;;;5.40;99.90;;;;;;5128603;27;20039;-82